Time;durP1;ratioP1;P1;durP2;ratioP2;P2;SDS_P1;SDS_P2;PMS_P1;PMS_P2;Temp;Humidity;BMP_temperature;BMP_pressure;BME280_temperature;BME280_humidity;BME280_pressure;Samples;Min_cycle;Max_cycle;Signal;HPM_P1;HPM_P2
2022/12/17 13:08:04;;;;;;;12.07;11.27;;;18.10;42.00;;;;;;4974325;28;20554;-50
2022/12/17 13:10:32;;;;;;;12.23;11.40;;;18.10;42.10;;;;;;4973954;28;20833;-51
2022/12/17 13:13:10;;;;;;;11.83;11.13;;;18.10;42.10;;;;;;4974232;28;20458;-53
2022/12/17 13:15:42;;;;;;;11.30;10.70;;;18.10;42.10;;;;;;4991374;28;20469;-52
2022/12/17 13:18:23;;;;;;;11.77;11.20;;;18.10;42.20;;;;;;4993637;28;20443;-52
2022/12/17 13:21:01;;;;;;;11.70;11.10;;;18.00;42.20;;;;;;4993096;28;20482;-52
2022/12/17 13:23:38;;;;;;;10.90;10.40;;;18.10;42.40;;;;;;4993174;28;20455;-52
2022/12/17 13:26:24;;;;;;;12.43;11.73;;;18.10;42.50;;;;;;4993658;28;20446;-52
2022/12/17 13:29:03;;;;;;;11.90;11.30;;;18.10;42.60;;;;;;4993515;28;20451;-53
2022/12/17 13:31:40;;;;;;;11.77;11.27;;;18.00;42.60;;;;;;4993217;28;20471;-52
2022/12/17 13:34:16;;;;;;;11.60;10.90;;;18.00;42.60;;;;;;4993031;28;20542;-53
2022/12/17 13:36:51;;;;;;;11.53;11.00;;;18.00;42.70;;;;;;4993228;28;20451;-54
2022/12/17 13:39:32;;;;;;;11.37;10.77;;;18.00;42.80;;;;;;4993045;28;20453;-52
2022/12/17 13:41:59;;;;;;;12.27;11.57;;;18.00;42.90;;;;;;4992965;28;20490;-53
2022/12/17 13:44:32;;;;;;;12.90;12.20;;;17.90;43.10;;;;;;4992838;28;20534;-53
2022/12/17 13:46:59;;;;;;;12.90;12.20;;;18.00;43.30;;;;;;4993007;28;20451;-52
2022/12/17 13:49:29;;;;;;;11.93;11.30;;;17.90;43.30;;;;;;4992884;28;20451;-54
2022/12/17 13:52:04;;;;;;;12.20;11.53;;;18.00;43.30;;;;;;4993250;28;20566;-52
2022/12/17 13:54:32;;;;;;;11.00;10.40;;;18.00;43.30;;;;;;4992831;28;20446;-51
2022/12/17 13:57:08;;;;;;;12.20;11.50;;;18.00;43.20;;;;;;4992708;28;20458;-51
2022/12/17 13:59:35;;;;;;;11.90;11.30;;;18.00;43.10;;;;;;4992751;28;20450;-51
2022/12/17 14:02:26;;;;;;;11.00;10.50;;;18.10;43.10;;;;;;4992531;28;20573;-50
2022/12/17 14:04:56;;;;;;;11.07;10.53;;;18.10;43.10;;;;;;4992709;28;20447;-50
2022/12/17 14:07:24;;;;;;;12.10;11.50;;;18.10;43.00;;;;;;4992678;28;20534;-52
2022/12/17 14:09:51;;;;;;;11.60;11.00;;;18.20;43.00;;;;;;4992366;28;20457;-51
2022/12/17 14:12:24;;;;;;;12.23;11.63;;;18.20;43.00;;;;;;4992379;28;20915;-52
2022/12/17 14:14:54;;;;;;;11.30;10.80;;;18.20;42.90;;;;;;4992697;28;20483;-52
2022/12/17 14:17:24;;;;;;;11.77;11.07;;;18.20;42.90;;;;;;4992763;28;20537;-54
2022/12/17 14:19:58;;;;;;;11.60;10.90;;;18.20;42.80;;;;;;4992185;28;20460;-53
2022/12/17 14:22:32;;;;;;;11.87;11.23;;;18.30;42.80;;;;;;4992327;28;20837;-51
2022/12/17 14:24:59;;;;;;;10.63;10.13;;;18.30;42.70;;;;;;4992719;28;20446;-51
2022/12/17 14:27:30;;;;;;;11.40;10.80;;;18.30;42.70;;;;;;4992635;28;20530;-53
2022/12/17 14:29:57;;;;;;;11.60;11.00;;;18.20;42.60;;;;;;4992229;28;20467;-50
2022/12/17 14:32:30;;;;;;;12.27;11.67;;;18.30;42.60;;;;;;4992384;28;20440;-51
2022/12/17 14:34:58;;;;;;;11.60;10.93;;;18.30;42.60;;;;;;4992282;28;20946;-51
2022/12/17 14:37:26;;;;;;;11.57;10.97;;;18.30;42.50;;;;;;4992174;28;20451;-50
2022/12/17 14:39:56;;;;;;;11.00;10.50;;;18.30;42.50;;;;;;4992089;28;20443;-50
2022/12/17 14:42:25;;;;;;;12.20;11.60;;;18.30;42.50;;;;;;4992378;28;20485;-51
2022/12/17 14:44:54;;;;;;;11.07;10.57;;;18.20;42.40;;;;;;4992031;28;20439;-51
2022/12/17 14:47:23;;;;;;;11.67;11.17;;;18.20;42.40;;;;;;4992154;28;20569;-50
2022/12/17 14:50:01;;;;;;;11.57;10.93;;;18.20;42.50;;;;;;4991552;28;20459;-51
2022/12/17 14:52:37;;;;;;;11.60;10.90;;;18.20;42.60;;;;;;4974561;28;20870;-52
2022/12/17 14:55:41;;;;;;;12.27;11.57;;;18.20;43.40;;;;;;4992043;28;20447;-50
2022/12/17 14:58:20;;;;;;;10.73;10.13;;;18.30;44.00;;;;;;4991570;28;20469;-51
2022/12/17 15:00:51;;;;;;;10.93;10.33;;;18.30;44.00;;;;;;4991467;28;20490;-52
2022/12/17 15:03:21;;;;;;;11.90;11.30;;;18.40;43.70;;;;;;4991995;28;20447;-53
2022/12/17 15:05:52;;;;;;;11.30;10.60;;;18.50;43.40;;;;;;4994810;28;20451;-50
2022/12/17 15:08:20;;;;;;;12.80;11.50;;;18.50;43.20;;;;;;4995901;28;20451;-52
2022/12/17 15:10:47;;;;;;;16.03;14.27;;;18.60;43.80;;;;;;4995698;28;20463;-50
2022/12/17 15:13:13;;;;;;;17.13;12.60;;;18.70;46.80;;;;;;4995967;28;20903;-50
2022/12/17 15:15:40;;;;;;;16.93;13.70;;;18.80;50.40;;;;;;4995597;28;20457;-51
2022/12/17 15:18:07;;;;;;;18.87;13.17;;;18.80;53.60;;;;;;4995839;28;21000;-52
2022/12/17 15:20:34;;;;;;;14.00;12.90;;;18.90;55.70;;;;;;4995340;28;20558;-51
2022/12/17 15:23:02;;;;;;;17.77;13.03;;;19.00;55.60;;;;;;4995787;28;20541;-50
2022/12/17 15:25:29;;;;;;;13.97;12.60;;;19.00;55.20;;;;;;4994926;28;20451;-50
2022/12/17 15:27:56;;;;;;;15.20;13.83;;;19.00;54.60;;;;;;4995682;28;20862;-52
2022/12/17 15:30:23;;;;;;;13.60;12.70;;;19.10;53.90;;;;;;4995194;28;20493;-51
2022/12/17 15:32:50;;;;;;;14.53;13.17;;;19.20;54.80;;;;;;4995320;28;20542;-51
2022/12/17 15:35:18;;;;;;;14.97;13.53;;;19.10;54.30;;;;;;4995511;28;20442;-55
2022/12/17 15:37:44;;;;;;;14.33;13.00;;;19.10;54.20;;;;;;4995459;28;20455;-51
2022/12/17 15:40:13;;;;;;;14.47;12.60;;;19.20;53.70;;;;;;4995152;28;20557;-51
2022/12/17 15:45:24;;;;;;;11.90;11.00;;;19.20;52.90;;;;;;4995144;28;20521;-51
2022/12/17 15:47:51;;;;;;;14.20;12.70;;;19.20;52.30;;;;;;4995282;28;20455;-53
2022/12/17 15:50:18;;;;;;;12.70;11.70;;;19.30;51.90;;;;;;4994839;28;20565;-50
2022/12/17 15:52:45;;;;;;;14.37;13.20;;;19.30;51.30;;;;;;4994938;28;20453;-49
2022/12/17 15:55:16;;;;;;;13.93;12.73;;;19.30;50.90;;;;;;4995083;28;20941;-48
2022/12/17 15:57:43;;;;;;;13.00;12.00;;;19.30;50.70;;;;;;4995115;28;20443;-51
2022/12/17 16:00:11;;;;;;;12.37;11.57;;;19.40;50.70;;;;;;4994969;28;20469;-50
2022/12/17 16:02:38;;;;;;;12.27;11.40;;;19.40;50.10;;;;;;4994661;28;21024;-60
2022/12/17 16:05:06;;;;;;;13.70;12.37;;;19.50;49.80;;;;;;4994636;28;20958;-52
2022/12/17 16:07:33;;;;;;;13.10;11.90;;;19.50;49.70;;;;;;4994813;28;20453;-55
2022/12/17 16:10:00;;;;;;;13.63;12.33;;;19.60;49.60;;;;;;4994502;28;20498;-55
2022/12/17 16:12:28;;;;;;;11.37;10.67;;;19.60;49.30;;;;;;4994924;28;20461;-54
2022/12/17 16:14:55;;;;;;;12.70;11.80;;;19.60;48.90;;;;;;4994394;28;20453;-54
2022/12/17 16:17:22;;;;;;;12.40;11.27;;;19.60;48.60;;;;;;4994552;28;20449;-57
2022/12/17 16:19:49;;;;;;;13.60;12.70;;;19.60;48.40;;;;;;4994473;28;20521;-56
2022/12/17 16:22:16;;;;;;;12.13;11.47;;;19.60;48.10;;;;;;4994583;28;20875;-53
2022/12/17 16:24:43;;;;;;;11.75;10.95;;;19.70;47.90;;;;;;4993495;28;20527;-56
2022/12/17 16:27:09;;;;;;;13.27;12.40;;;19.70;47.60;;;;;;4993156;28;20290;-53
2022/12/17 16:29:38;;;;;;;13.70;12.70;;;19.80;47.00;;;;;;4993915;28;20542;-50
2022/12/17 16:32:05;;;;;;;13.30;12.27;;;19.80;47.20;;;;;;4994290;28;20529;-51
2022/12/17 16:34:32;;;;;;;11.63;10.43;;;19.80;47.20;;;;;;4994501;28;20993;-51
2022/12/17 16:37:00;;;;;;;12.63;11.70;;;19.80;47.90;;;;;;4994492;28;20534;-53
2022/12/17 16:39:27;;;;;;;12.20;11.30;;;19.80;47.60;;;;;;4994108;28;20463;-59
2022/12/17 16:41:54;;;;;;;14.03;12.80;;;19.90;47.40;;;;;;4995094;28;20578;-62
2022/12/17 16:44:21;;;;;;;16.90;15.73;;;20.00;47.40;;;;;;4994515;28;20833;-65
2022/12/17 16:46:50;;;;;;;16.60;15.50;;;20.10;47.30;;;;;;4994280;28;20537;-60
2022/12/17 16:49:19;;;;;;;16.10;15.30;;;20.30;47.50;;;;;;4994041;28;20505;-59
2022/12/17 16:51:48;;;;;;;18.13;16.80;;;20.40;47.70;;;;;;4993701;28;20481;-59
2022/12/17 16:54:17;;;;;;;18.80;17.57;;;20.50;47.10;;;;;;4994071;28;20819;-62
2022/12/17 16:56:45;;;;;;;18.20;17.07;;;20.60;47.10;;;;;;4994070;28;20812;-60
2022/12/17 16:59:13;;;;;;;16.87;16.07;;;20.60;47.00;;;;;;4993957;28;20451;-62
2022/12/17 17:01:43;;;;;;;17.90;17.10;;;20.70;46.70;;;;;;4993842;28;20989;-60
2022/12/17 17:04:12;;;;;;;17.63;16.63;;;20.80;46.30;;;;;;4993388;28;20958;-65
2022/12/17 17:06:40;;;;;;;17.73;16.43;;;20.80;46.10;;;;;;4993798;28;20818;-63
2022/12/17 17:09:07;;;;;;;17.03;16.17;;;20.90;46.40;;;;;;4993596;28;20451;-63
2022/12/17 17:11:34;;;;;;;15.90;15.20;;;20.90;45.90;;;;;;4993744;28;20539;-63
2022/12/17 17:14:01;;;;;;;16.43;15.63;;;20.90;46.30;;;;;;4993655;28;20538;-64
2022/12/17 17:16:29;;;;;;;17.80;16.70;;;21.00;45.50;;;;;;4993794;28;20542;-64
2022/12/17 17:18:56;;;;;;;16.67;15.80;;;21.00;45.20;;;;;;4993675;28;20534;-65
2022/12/17 17:21:26;;;;;;;15.77;15.07;;;20.90;44.90;;;;;;4993489;28;20521;-58
2022/12/17 17:23:56;;;;;;;15.37;14.63;;;20.90;45.10;;;;;;4993576;28;20450;-62
2022/12/17 17:26:23;;;;;;;16.50;15.60;;;21.00;45.10;;;;;;4993456;28;20538;-61
2022/12/17 17:28:50;;;;;;;16.70;15.90;;;21.00;45.00;;;;;;4993791;28;20938;-62
2022/12/17 17:31:18;;;;;;;17.20;16.30;;;21.00;44.90;;;;;;4994530;28;20479;-61
2022/12/17 17:33:47;;;;;;;15.50;14.90;;;21.00;44.80;;;;;;4994231;28;20453;-62
2022/12/17 17:36:16;;;;;;;17.03;16.13;;;21.00;44.80;;;;;;4993312;28;20446;-62
2022/12/17 17:38:45;;;;;;;15.73;15.03;;;21.00;44.70;;;;;;4992865;28;20455;-62
2022/12/17 17:41:14;;;;;;;16.67;15.87;;;21.10;44.70;;;;;;4993045;28;20790;-62
2022/12/17 17:43:41;;;;;;;16.43;15.63;;;21.10;44.60;;;;;;4993226;28;20453;-61
2022/12/17 17:46:10;;;;;;;17.13;16.23;;;21.20;44.60;;;;;;4993029;28;20457;-62
2022/12/17 17:48:37;;;;;;;14.70;13.90;;;21.20;44.50;;;;;;4993897;28;20444;-57
2022/12/17 17:51:07;;;;;;;15.17;14.47;;;21.20;44.10;;;;;;4994393;28;20478;-59
2022/12/17 17:53:34;;;;;;;15.83;15.13;;;21.20;43.90;;;;;;4993216;28;20950;-57
2022/12/17 17:56:13;;;;;;;17.00;16.10;;;21.20;43.70;;;;;;4993077;28;20454;-59
2022/12/17 17:58:40;;;;;;;16.97;16.17;;;21.20;43.70;;;;;;4993958;28;20446;-63
2022/12/17 18:01:09;;;;;;;16.10;15.30;;;21.20;44.30;;;;;;4993797;28;20533;-62
2022/12/17 18:03:38;;;;;;;15.70;14.80;;;21.30;44.70;;;;;;4994549;28;20877;-58
2022/12/17 18:06:07;;;;;;;16.60;15.80;;;21.40;44.90;;;;;;4998309;28;20478;-61
2022/12/17 18:08:35;;;;;;;18.60;17.70;;;21.50;44.60;;;;;;4996631;28;20530;-62
2022/12/17 18:11:04;;;;;;;16.47;15.77;;;21.60;44.30;;;;;;4996926;28;20490;-61
2022/12/17 18:16:17;;;;;;;17.20;16.50;;;21.90;44.20;;;;;;4994705;28;20815;-64
2022/12/17 18:18:44;;;;;;;16.87;15.90;;;22.00;43.90;;;;;;4994283;28;20445;-63
2022/12/17 18:21:13;;;;;;;16.97;16.07;;;22.10;44.20;;;;;;4994460;28;20839;-58
2022/12/17 18:23:40;;;;;;;15.97;15.37;;;22.10;43.80;;;;;;4993983;28;20577;-59
2022/12/17 18:26:08;;;;;;;15.70;15.10;;;22.10;43.50;;;;;;4992548;28;20925;-58
2022/12/17 18:28:37;;;;;;;16.33;15.53;;;22.20;43.40;;;;;;4993079;28;20453;-61
2022/12/17 18:31:09;;;;;;;15.23;14.53;;;22.30;43.30;;;;;;4994673;28;20471;-60
2022/12/17 18:33:37;;;;;;;16.17;15.37;;;22.30;43.20;;;;;;4992837;28;20453;-61
2022/12/17 18:36:12;;;;;;;15.30;14.60;;;22.40;43.20;;;;;;4992511;28;20529;-59
2022/12/17 18:38:39;;;;;;;15.60;15.00;;;22.40;42.90;;;;;;4992225;28;20505;-58
2022/12/17 18:43:22;;;;;;;17.00;16.10;;;22.50;42.90;;;;;;4992077;28;20471;-59
2022/12/17 18:43:57;;;;;;;15.40;14.80;;;22.50;42.70;;;;;;4992684;28;20784;-56
2022/12/17 18:46:25;;;;;;;15.90;15.20;;;22.60;42.60;;;;;;4992985;28;20521;-61
2022/12/17 18:48:52;;;;;;;16.40;15.70;;;22.60;42.50;;;;;;4993664;28;20461;-61
2022/12/17 18:51:20;;;;;;;15.57;14.97;;;22.60;42.50;;;;;;4993205;28;20475;-63
2022/12/17 18:53:47;;;;;;;17.33;16.43;;;22.60;42.40;;;;;;4992923;28;20865;-57
2022/12/17 18:56:15;;;;;;;16.00;15.30;;;22.70;42.60;;;;;;4992880;28;20534;-60
2022/12/17 18:58:42;;;;;;;15.93;15.23;;;22.70;42.40;;;;;;4992686;28;20530;-62
2022/12/17 19:01:20;;;;;;;16.80;16.00;;;22.70;42.20;;;;;;4992395;28;20463;-60
2022/12/17 19:03:48;;;;;;;16.47;15.70;;;22.80;42.20;;;;;;4992611;28;20905;-58
2022/12/17 19:06:16;;;;;;;16.40;15.70;;;22.80;42.10;;;;;;4992444;28;20456;-55
2022/12/17 19:08:43;;;;;;;15.77;15.10;;;22.90;42.00;;;;;;4992523;28;20972;-59
2022/12/17 19:11:11;;;;;;;16.60;15.90;;;22.80;41.80;;;;;;4992295;28;20958;-53
2022/12/17 19:13:38;;;;;;;16.23;15.53;;;22.90;41.90;;;;;;4991871;28;20530;-53
2022/12/17 19:16:08;;;;;;;16.93;16.13;;;22.90;41.80;;;;;;4992156;28;20542;-56
2022/12/17 19:18:37;;;;;;;17.47;16.67;;;22.80;41.80;;;;;;4992318;28;20486;-60
2022/12/17 19:21:06;;;;;;;16.80;16.00;;;22.80;41.80;;;;;;4991559;28;20471;-63
2022/12/17 19:23:33;;;;;;;16.97;16.17;;;22.80;41.80;;;;;;4992139;28;20486;-57
2022/12/17 19:26:06;;;;;;;17.10;16.30;;;22.80;41.80;;;;;;4992284;28;20442;-53
2022/12/17 19:28:33;;;;;;;18.40;17.40;;;22.80;41.70;;;;;;4991824;28;20451;-56
2022/12/17 19:31:01;;;;;;;17.40;16.70;;;22.80;41.60;;;;;;4991572;28;20463;-53
2022/12/17 19:33:28;;;;;;;16.80;16.10;;;22.90;41.60;;;;;;4991801;28;20881;-55
2022/12/17 19:36:08;;;;;;;18.13;17.33;;;22.80;41.40;;;;;;4991890;28;20502;-61
2022/12/17 19:38:35;;;;;;;18.53;17.63;;;22.80;41.00;;;;;;4991491;28;20447;-56
2022/12/17 19:41:05;;;;;;;18.10;17.30;;;22.70;42.30;;;;;;4991429;28;20470;-56
2022/12/17 19:43:33;;;;;;;18.03;17.03;;;22.60;41.60;;;;;;4991766;28;20853;-63
2022/12/17 19:46:04;;;;;;;16.70;15.93;;;22.60;41.20;;;;;;4991634;28;20537;-55
2022/12/17 19:48:32;;;;;;;16.50;15.80;;;22.60;42.30;;;;;;4991468;28;20451;-60
2022/12/17 19:51:00;;;;;;;18.17;17.27;;;22.60;43.50;;;;;;4996018;28;20485;-56
2022/12/17 19:53:30;;;;;;;15.80;15.20;;;22.60;44.10;;;;;;4997050;28;20470;-54
2022/12/17 19:56:08;;;;;;;17.30;16.40;;;22.70;44.40;;;;;;4995406;28;20450;-64
2022/12/17 19:58:35;;;;;;;16.10;15.40;;;22.60;44.60;;;;;;4995542;28;20442;-56
2022/12/17 20:01:06;;;;;;;16.60;15.70;;;22.60;45.30;;;;;;4995397;28;20475;-56
2022/12/17 20:03:33;;;;;;;15.67;14.97;;;22.60;45.20;;;;;;4995114;28;20481;-56
2022/12/17 20:06:00;;;;;;;16.17;15.47;;;22.60;45.20;;;;;;4995439;28;20877;-56
2022/12/17 20:08:31;;;;;;;17.03;16.23;;;22.60;45.10;;;;;;4995338;28;20455;-56
2022/12/17 20:11:00;;;;;;;16.53;15.90;;;22.70;45.40;;;;;;4995103;28;20474;-57
2022/12/17 20:13:28;;;;;;;15.70;15.10;;;22.60;45.40;;;;;;4994916;28;20443;-58
2022/12/17 20:16:01;;;;;;;17.07;16.27;;;22.60;45.60;;;;;;4995036;28;20552;-57
2022/12/17 20:18:28;;;;;;;16.03;15.33;;;22.60;45.90;;;;;;4995075;28;20447;-56
2022/12/17 20:21:02;;;;;;;15.70;14.83;;;22.50;46.20;;;;;;4994869;28;20473;-55
2022/12/17 20:23:30;;;;;;;15.50;14.80;;;22.50;46.60;;;;;;4994959;28;20569;-62
2022/12/17 20:26:04;;;;;;;15.73;15.10;;;22.50;47.20;;;;;;4994503;28;20451;-60
2022/12/17 20:28:32;;;;;;;15.20;14.60;;;22.50;47.10;;;;;;4994584;28;20967;-58
2022/12/17 20:30:59;;;;;;;17.17;16.47;;;22.50;47.80;;;;;;4994310;28;20525;-59
2022/12/17 20:33:26;;;;;;;16.50;15.80;;;22.50;46.90;;;;;;4994598;28;20443;-56
2022/12/17 20:35:53;;;;;;;16.00;15.30;;;22.50;47.00;;;;;;4994139;28;20490;-56
2022/12/17 20:38:20;;;;;;;15.50;14.80;;;22.50;46.90;;;;;;4994418;28;20530;-60
2022/12/17 20:40:48;;;;;;;16.30;15.50;;;22.40;46.80;;;;;;4994145;28;20477;-60
2022/12/17 20:43:15;;;;;;;15.53;14.87;;;22.40;47.00;;;;;;4994134;28;20557;-59
2022/12/17 20:45:48;;;;;;;15.30;14.60;;;22.40;47.10;;;;;;4994546;28;20907;-58
2022/12/17 20:48:15;;;;;;;16.80;16.10;;;22.40;46.80;;;;;;4993882;28;20954;-55
2022/12/17 20:50:42;;;;;;;16.00;15.30;;;22.40;46.80;;;;;;4993930;28;20528;-56
2022/12/17 20:53:09;;;;;;;16.17;15.47;;;22.50;46.80;;;;;;4994369;28;20525;-58
2022/12/17 20:55:36;;;;;;;15.73;15.03;;;22.50;46.80;;;;;;4994142;28;20451;-58
2022/12/17 20:58:04;;;;;;;16.10;15.50;;;22.50;47.10;;;;;;4993990;28;20533;-59
2022/12/17 21:00:32;;;;;;;15.73;14.97;;;22.50;47.30;;;;;;4993794;28;20505;-57
2022/12/17 21:02:59;;;;;;;15.40;14.80;;;22.50;47.20;;;;;;4992884;28;20489;-60
2022/12/17 21:05:27;;;;;;;16.73;16.03;;;22.50;47.10;;;;;;4993788;28;20822;-58
2022/12/17 21:07:54;;;;;;;15.03;14.43;;;22.50;47.00;;;;;;4994224;28;20460;-62
2022/12/17 21:10:21;;;;;;;15.60;14.90;;;22.60;46.90;;;;;;4993892;28;20557;-60
2022/12/17 21:15:33;;;;;;;15.43;14.73;;;22.50;47.30;;;;;;4994354;28;20474;-63
2022/12/17 21:18:00;;;;;;;15.90;15.30;;;22.50;46.90;;;;;;4994042;28;20489;-61
2022/12/17 21:20:27;;;;;;;14.60;14.00;;;22.50;46.90;;;;;;4993828;28;20470;-58
2022/12/17 21:22:54;;;;;;;15.43;14.70;;;22.50;47.50;;;;;;4994341;28;21002;-61
2022/12/17 21:25:21;;;;;;;12.40;11.90;;;22.50;46.80;;;;;;4993737;28;20542;-61
2022/12/17 21:27:47;;;;;;;12.60;12.07;;;22.50;46.70;;;;;;4993538;28;20459;-55
2022/12/17 21:30:17;;;;;;;13.80;13.17;;;22.40;46.00;;;;;;4992546;28;20577;-61
2022/12/17 21:32:46;;;;;;;13.87;13.23;;;22.10;44.60;;;;;;4993228;28;20813;-57
2022/12/17 21:35:14;;;;;;;13.43;12.83;;;21.90;44.70;;;;;;4993618;28;20455;-59
2022/12/17 21:37:41;;;;;;;13.80;13.10;;;21.80;45.00;;;;;;4993256;28;20453;-59
2022/12/17 21:40:09;;;;;;;13.43;12.83;;;21.60;45.30;;;;;;4992802;28;20830;-58
2022/12/17 21:45:20;;;;;;;13.30;12.70;;;21.30;45.60;;;;;;4993163;28;20470;-59
2022/12/17 21:47:48;;;;;;;13.47;12.87;;;21.20;45.80;;;;;;4993092;28;20799;-55
2022/12/17 21:50:15;;;;;;;12.73;12.17;;;21.10;45.90;;;;;;4992792;28;20667;-56
2022/12/17 21:52:42;;;;;;;13.60;13.00;;;20.90;45.90;;;;;;4992795;28;20442;-54
2022/12/17 21:55:09;;;;;;;13.57;12.50;;;20.90;46.10;;;;;;4992972;28;20451;-58
2022/12/17 21:57:37;;;;;;;13.23;12.70;;;20.80;46.10;;;;;;4993049;28;20546;-55
2022/12/17 22:00:05;;;;;;;14.30;13.60;;;20.70;46.10;;;;;;4992405;28;20808;-56
2022/12/17 22:02:32;;;;;;;13.80;13.20;;;20.60;46.10;;;;;;4992769;28;20487;-56
2022/12/17 22:05:00;;;;;;;13.30;12.80;;;20.60;46.20;;;;;;4992824;28;21030;-57
2022/12/17 22:07:30;;;;;;;13.27;12.67;;;20.50;46.70;;;;;;4992788;28;20443;-55
2022/12/17 22:09:56;;;;;;;14.53;13.77;;;20.40;46.10;;;;;;4992227;28;20471;-58
2022/12/17 22:15:09;;;;;;;12.17;11.73;;;20.30;46.20;;;;;;4992668;28;20526;-57
2022/12/17 22:17:36;;;;;;;13.20;12.50;;;20.20;46.30;;;;;;4992717;28;20870;-59
2022/12/17 22:20:05;;;;;;;12.63;12.13;;;20.10;46.30;;;;;;4992278;28;20473;-58
2022/12/17 22:22:32;;;;;;;12.80;12.20;;;20.10;46.90;;;;;;4992474;28;20457;-58
2022/12/17 22:24:59;;;;;;;11.53;11.03;;;20.00;46.30;;;;;;4992469;28;20443;-55
2022/12/17 22:27:26;;;;;;;11.13;10.73;;;20.00;46.90;;;;;;4992476;28;20477;-59
2022/12/17 22:33:01;;;;;;;12.43;11.90;;;19.90;46.40;;;;;;4951516;29;20480;-58
2022/12/17 22:35:34;;;;;;;12.13;11.63;;;19.80;46.40;;;;;;4950783;29;20515;-55
2022/12/17 22:38:01;;;;;;;11.87;11.37;;;19.70;46.30;;;;;;4962876;28;20450;-56
2022/12/17 22:40:28;;;;;;;13.30;12.70;;;19.70;46.30;;;;;;4972630;28;20984;-59
2022/12/17 22:45:40;;;;;;;13.00;12.40;;;19.60;46.30;;;;;;4974583;28;20443;-56
2022/12/17 22:48:07;;;;;;;12.03;11.53;;;19.60;46.20;;;;;;4992220;28;20451;-57
2022/12/17 22:50:35;;;;;;;12.40;11.90;;;19.50;46.30;;;;;;4991950;28;20862;-58
2022/12/17 22:53:02;;;;;;;11.77;11.27;;;19.40;46.20;;;;;;4992218;28;20448;-57
2022/12/17 22:55:29;;;;;;;12.30;11.60;;;19.40;46.20;;;;;;4992204;28;20451;-58
2022/12/17 22:57:56;;;;;;;12.23;11.53;;;19.40;46.30;;;;;;4991645;28;20562;-57
2022/12/17 23:00:25;;;;;;;12.30;11.80;;;19.30;46.20;;;;;;4991764;28;21101;-58
2022/12/17 23:02:53;;;;;;;12.10;11.60;;;19.30;46.10;;;;;;4992052;28;20443;-57
2022/12/17 23:05:20;;;;;;;12.27;11.63;;;19.30;46.20;;;;;;4992100;28;20502;-58
2022/12/17 23:07:49;;;;;;;11.53;11.13;;;19.20;46.10;;;;;;4992049;28;20934;-59
2022/12/17 23:10:16;;;;;;;12.17;11.57;;;19.20;46.10;;;;;;4991354;28;20997;-56
2022/12/17 23:12:53;;;;;;;11.63;11.03;;;19.20;46.10;;;;;;4992110;28;20455;-59
2022/12/17 23:15:23;;;;;;;11.23;10.73;;;19.10;46.00;;;;;;4992278;28;20450;-58
2022/12/17 23:17:52;;;;;;;12.27;11.67;;;19.10;46.10;;;;;;4992348;28;20450;-55
2022/12/17 23:20:19;;;;;;;11.23;10.80;;;19.00;46.10;;;;;;4991965;28;20470;-57
2022/12/17 23:22:46;;;;;;;11.40;10.90;;;19.00;46.60;;;;;;4991697;28;20447;-55
2022/12/17 23:25:15;;;;;;;11.20;10.70;;;19.00;46.10;;;;;;4992169;28;20434;-54
2022/12/17 23:27:42;;;;;;;11.60;11.10;;;18.90;46.00;;;;;;4995765;28;20449;-54
2022/12/17 23:30:10;;;;;;;11.30;10.80;;;18.90;46.00;;;;;;4995315;28;20467;-54
2022/12/17 23:32:37;;;;;;;11.70;11.20;;;18.90;46.00;;;;;;4995986;28;20443;-58
2022/12/17 23:35:05;;;;;;;11.33;10.90;;;18.80;46.00;;;;;;4995293;28;20469;-55
2022/12/17 23:37:32;;;;;;;11.63;11.13;;;18.80;45.90;;;;;;4995127;28;20446;-56
2022/12/17 23:39:58;;;;;;;11.43;10.90;;;18.80;46.00;;;;;;4995226;28;20553;-57
2022/12/17 23:42:27;;;;;;;11.60;11.10;;;18.70;45.90;;;;;;4995538;28;20459;-54
2022/12/17 23:44:53;;;;;;;11.70;11.30;;;18.70;45.90;;;;;;4995407;28;20487;-55
2022/12/17 23:47:20;;;;;;;11.03;10.67;;;18.70;45.90;;;;;;4995081;28;21041;-56
2022/12/17 23:49:47;;;;;;;12.30;11.80;;;18.60;45.90;;;;;;4995085;28;20449;-58
2022/12/17 23:52:14;;;;;;;12.07;11.47;;;18.60;45.90;;;;;;4995239;28;20447;-55
2022/12/17 23:54:41;;;;;;;11.23;10.73;;;18.60;45.90;;;;;;4995175;28;20446;-58
2022/12/17 23:57:08;;;;;;;11.57;11.07;;;18.60;45.90;;;;;;4995197;28;20478;-56
2022/12/17 23:59:36;;;;;;;12.07;11.57;;;18.50;45.80;;;;;;4994629;28;20447;-57
